Time;durP1;ratioP1;P1;durP2;ratioP2;P2;SDS_P1;SDS_P2;PMS_P1;PMS_P2;Temp;Humidity;BMP_temperature;BMP_pressure;BME280_temperature;BME280_humidity;BME280_pressure;Samples;Min_cycle;Max_cycle;Signal;HPM_P1;HPM_P2
2024/01/07 00:00:16;;;;;;;24.80;11.27;;;;;;;0.73;100.00;101647.34;5047256;28;20132;-72
2024/01/07 00:02:41;;;;;;;26.10;12.93;;;;;;;0.74;100.00;101641.19;5048242;28;20061;-72
2024/01/07 00:05:07;;;;;;;24.30;11.05;;;;;;;0.75;100.00;101646.28;5048603;28;20501;-73
2024/01/07 00:07:32;;;;;;;27.75;15.07;;;;;;;0.75;100.00;101645.47;5048472;28;20456;-72
2024/01/07 00:09:58;;;;;;;26.73;14.20;;;;;;;0.73;100.00;101642.94;5048628;28;20036;-72
2024/01/07 00:12:24;;;;;;;25.25;12.23;;;;;;;0.72;100.00;101640.44;5052171;28;20060;-72
2024/01/07 00:14:50;;;;;;;23.38;10.05;;;;;;;0.71;100.00;101650.13;5051898;28;20112;-73
2024/01/07 00:17:15;;;;;;;24.38;10.07;;;;;;;0.68;100.00;101654.72;5052133;28;20476;-72
2024/01/07 00:19:41;;;;;;;23.73;10.40;;;;;;;0.68;100.00;101655.56;5050631;28;20041;-73
2024/01/07 00:22:07;;;;;;;22.70;10.38;;;;;;;0.63;100.00;101657.72;5051979;28;20044;-72
2024/01/07 00:24:32;;;;;;;25.40;11.57;;;;;;;0.61;100.00;101657.81;5051862;28;20027;-72
2024/01/07 00:26:57;;;;;;;24.92;11.68;;;;;;;0.60;100.00;101669.28;5051908;28;20037;-72
2024/01/07 00:29:23;;;;;;;23.00;11.18;;;;;;;0.61;100.00;101672.72;5051811;28;20037;-72
2024/01/07 00:31:48;;;;;;;20.90;10.38;;;;;;;0.54;100.00;101655.75;5051621;28;20484;-72
2024/01/07 00:34:14;;;;;;;21.05;10.07;;;;;;;0.62;100.00;101669.97;5034014;28;20134;-72
2024/01/07 00:36:39;;;;;;;26.23;12.00;;;;;;;0.61;100.00;101678.81;5050191;28;20037;-72
2024/01/07 00:39:05;;;;;;;23.45;11.13;;;;;;;0.61;100.00;101681.44;5051718;28;20036;-73
2024/01/07 00:41:31;;;;;;;21.00;10.27;;;;;;;0.61;100.00;101685.84;5051595;28;20037;-72
2024/01/07 00:43:56;;;;;;;23.23;10.30;;;;;;;0.61;100.00;101691.94;5051611;28;20055;-72
2024/01/07 00:46:22;;;;;;;25.13;12.40;;;;;;;0.54;100.00;101674.13;5051698;28;20611;-72
2024/01/07 00:48:47;;;;;;;25.77;13.70;;;;;;;0.57;100.00;101676.50;5051313;28;20068;-72
2024/01/07 00:51:13;;;;;;;26.45;11.77;;;;;;;0.61;100.00;101693.72;5051487;28;20120;-72
2024/01/07 00:53:38;;;;;;;26.30;13.20;;;;;;;0.61;100.00;101689.31;5051458;28;20037;-72
2024/01/07 00:56:04;;;;;;;29.65;13.35;;;;;;;0.62;100.00;101693.59;5051203;28;20503;-72
2024/01/07 00:58:29;;;;;;;28.13;11.13;;;;;;;0.62;100.00;101692.78;5051236;28;20032;-72
2024/01/07 01:00:55;;;;;;;23.90;11.20;;;;;;;0.61;100.00;101697.19;5051356;28;20028;-72
2024/01/07 01:03:20;;;;;;;27.00;12.38;;;;;;;0.59;100.00;101696.44;5052072;28;20124;-72
2024/01/07 01:05:46;;;;;;;24.27;11.60;;;;;;;0.53;100.00;101693.44;5052708;28;20066;-73
2024/01/07 01:08:11;;;;;;;26.98;13.18;;;;;;;0.52;100.00;101697.84;5051311;28;20025;-72
2024/01/07 01:10:37;;;;;;;26.30;13.70;;;;;;;0.60;100.00;101705.16;5051098;28;20150;-72
2024/01/07 01:13:03;;;;;;;25.52;11.30;;;;;;;0.58;100.00;101702.66;5051045;28;20025;-73
2024/01/07 01:15:28;;;;;;;31.17;15.85;;;;;;;0.60;100.00;101707.78;5050962;28;20036;-73
2024/01/07 01:17:53;;;;;;;28.90;13.88;;;;;;;0.54;100.00;101708.25;5050933;28;20029;-72
2024/01/07 01:20:19;;;;;;;29.60;14.32;;;;;;;0.59;100.00;101714.81;5050879;28;20103;-72
2024/01/07 01:22:44;;;;;;;34.08;14.77;;;;;;;0.57;100.00;101706.22;5049387;28;20041;-69
2024/01/07 01:25:10;;;;;;;27.48;13.63;;;;;;;0.58;100.00;101707.09;5050811;28;20388;-70
2024/01/07 01:27:35;;;;;;;25.60;11.68;;;;;;;0.57;100.00;101711.47;5050777;28;20047;-70
2024/01/07 01:30:00;;;;;;;28.13;13.90;;;;;;;0.54;100.00;101719.56;5050769;28;20037;-69
2024/01/07 01:32:26;;;;;;;29.02;13.93;;;;;;;0.51;100.00;101716.34;5050596;28;20043;-69
2024/01/07 01:34:51;;;;;;;34.80;15.60;;;;;;;0.50;100.00;101718.13;5050541;28;20041;-70
2024/01/07 01:37:16;;;;;;;31.85;15.38;;;;;;;0.50;100.00;101720.75;5050520;28;20135;-70
2024/01/07 01:39:42;;;;;;;29.02;13.93;;;;;;;0.52;100.00;101731.13;5050516;28;20074;-69
2024/01/07 01:42:07;;;;;;;29.77;16.10;;;;;;;0.47;100.00;101726.19;5050296;28;20036;-70
2024/01/07 01:44:33;;;;;;;22.30;10.55;;;;;;;0.47;100.00;101739.31;5050509;28;20380;-70
2024/01/07 01:47:00;;;;;;;27.95;12.75;;;;;;;0.42;100.00;101747.53;5050442;28;20388;-69
2024/01/07 01:49:26;;;;;;;31.60;16.35;;;;;;;0.39;100.00;101739.88;5050204;28;20112;-70
2024/01/07 01:51:52;;;;;;;28.20;13.32;;;;;;;0.32;100.00;101740.44;5050292;28;20380;-69
2024/01/07 01:54:18;;;;;;;32.88;16.30;;;;;;;0.27;100.00;101738.13;5050282;28;20029;-70
2024/01/07 01:56:44;;;;;;;33.38;15.05;;;;;;;0.30;100.00;101744.94;5050106;28;20039;-70
2024/01/07 01:59:10;;;;;;;30.25;12.43;;;;;;;0.26;100.00;101743.47;5050222;28;20124;-69
2024/01/07 02:01:36;;;;;;;28.92;13.30;;;;;;;0.27;100.00;101751.25;5050172;28;20511;-70
2024/01/07 02:04:01;;;;;;;31.25;14.18;;;;;;;0.28;100.00;101746.81;5050215;28;20048;-70
2024/01/07 02:06:27;;;;;;;35.65;15.93;;;;;;;0.24;100.00;101747.97;5049945;28;20405;-69
2024/01/07 02:08:52;;;;;;;34.10;15.43;;;;;;;0.28;100.00;101749.44;5050022;28;20111;-69
2024/01/07 02:11:19;;;;;;;33.08;16.10;;;;;;;0.26;100.00;101752.16;5049894;28;20116;-70
2024/01/07 02:13:45;;;;;;;36.30;18.67;;;;;;;0.25;100.00;101757.53;5050120;28;20060;-69
2024/01/07 02:16:11;;;;;;;36.75;16.38;;;;;;;0.26;100.00;101756.56;5049851;28;20137;-69
2024/01/07 02:18:37;;;;;;;35.05;18.40;;;;;;;0.22;100.00;101762.03;5049682;28;20048;-69
2024/01/07 02:21:03;;;;;;;43.65;22.00;;;;;;;0.23;100.00;101755.00;5049693;28;20035;-70
2024/01/07 02:23:28;;;;;;;34.40;15.95;;;;;;;0.25;100.00;101758.38;5049735;28;20024;-70
2024/01/07 02:25:54;;;;;;;37.13;16.20;;;;;;;0.24;100.00;101748.84;5049839;28;20040;-69
2024/01/07 02:28:19;;;;;;;40.10;17.90;;;;;;;0.28;100.00;101759.94;5049627;28;20108;-70
2024/01/07 02:30:44;;;;;;;42.25;16.75;;;;;;;0.29;100.00;101753.72;5048254;28;20040;-69
2024/01/07 02:33:10;;;;;;;39.97;16.80;;;;;;;0.30;100.00;101768.53;5048060;28;20515;-70
2024/01/07 02:35:35;;;;;;;41.22;19.45;;;;;;;0.33;100.00;101760.47;5049482;28;20124;-69
2024/01/07 02:38:00;;;;;;;36.72;18.55;;;;;;;0.34;100.00;101762.13;5049515;28;20037;-70
2024/01/07 02:40:26;;;;;;;41.20;18.58;;;;;;;0.35;100.00;101775.16;5049442;28;20075;-69
2024/01/07 02:42:51;;;;;;;35.67;16.92;;;;;;;0.32;100.00;101764.03;5049444;28;20482;-69
2024/01/07 02:45:17;;;;;;;39.88;17.92;;;;;;;0.40;100.00;101778.28;5049416;28;20024;-70
2024/01/07 02:47:42;;;;;;;37.15;18.17;;;;;;;0.40;100.00;101780.91;5049294;28;20484;-70
2024/01/07 02:50:07;;;;;;;37.35;18.50;;;;;;;0.42;100.00;101783.44;5049195;28;20386;-70
2024/01/07 02:52:33;;;;;;;35.35;15.32;;;;;;;0.44;100.00;101777.13;5049220;28;20036;-70
2024/01/07 02:55:01;;;;;;;31.00;17.08;;;;;;;0.48;100.00;101787.41;5049201;28;20036;-70
2024/01/07 02:57:26;;;;;;;37.35;15.57;;;;;;;0.45;100.00;101785.84;5049218;28;20033;-69
2024/01/07 02:59:52;;;;;;;35.83;15.98;;;;;;;0.49;100.00;101787.28;5049103;28;20033;-70
2024/01/07 03:02:17;;;;;;;40.58;19.23;;;;;;;0.53;100.00;101788.75;5049044;28;20116;-69
2024/01/07 03:04:43;;;;;;;35.72;16.65;;;;;;;0.53;100.00;101790.56;5049132;28;20063;-70
2024/01/07 03:07:08;;;;;;;35.17;16.73;;;;;;;0.52;100.00;101787.06;5047710;28;20040;-69
2024/01/07 03:09:34;;;;;;;40.45;18.67;;;;;;;0.52;100.00;101794.94;5049064;28;20032;-70
2024/01/07 03:11:59;;;;;;;38.53;18.10;;;;;;;0.52;100.00;101791.50;5048883;28;20025;-70
2024/01/07 03:14:24;;;;;;;36.35;17.42;;;;;;;0.54;100.00;101797.47;5048885;28;20033;-69
2024/01/07 03:16:50;;;;;;;38.85;17.83;;;;;;;0.48;100.00;101796.13;5048840;28;20082;-70
2024/01/07 03:19:15;;;;;;;41.95;20.60;;;;;;;0.52;100.00;101802.81;5048901;28;20507;-69
2024/01/07 03:21:41;;;;;;;38.20;17.30;;;;;;;0.52;100.00;101807.22;5047422;28;20037;-69
2024/01/07 03:24:06;;;;;;;34.08;17.35;;;;;;;0.41;100.00;101795.69;5048883;28;20047;-70
2024/01/07 03:26:32;;;;;;;29.75;16.27;;;;;;;0.48;100.00;101811.03;5048673;28;20377;-70
2024/01/07 03:28:59;;;;;;;30.33;15.23;;;;;;;0.46;100.00;101811.13;5048711;28;20492;-69
2024/01/07 03:31:25;;;;;;;39.38;16.88;;;;;;;0.47;100.00;101809.34;5048731;28;20032;-70
2024/01/07 03:33:51;;;;;;;35.60;17.10;;;;;;;0.40;100.00;101801.91;5048774;28;20109;-69
2024/01/07 03:36:16;;;;;;;28.95;12.95;;;;;;;0.44;100.00;101807.75;5048783;28;20533;-69
2024/01/07 03:38:42;;;;;;;27.35;12.52;;;;;;;0.38;100.00;101816.09;5048754;28;20143;-69
2024/01/07 03:41:07;;;;;;;31.35;15.48;;;;;;;0.28;100.00;101810.63;5048887;28;20396;-70
2024/01/07 03:43:33;;;;;;;32.63;13.15;;;;;;;0.28;100.00;101813.25;5047384;28;20029;-69
2024/01/07 03:45:59;;;;;;;24.73;10.93;;;;;;;0.27;100.00;101822.06;5050376;28;20146;-70
2024/01/07 03:48:24;;;;;;;31.67;13.65;;;;;;;0.30;100.00;101824.47;5052476;28;20392;-70
2024/01/07 03:50:50;;;;;;;29.73;11.82;;;;;;;0.36;100.00;101833.72;5052596;28;20043;-69
2024/01/07 03:53:16;;;;;;;31.85;13.20;;;;;;;0.36;100.00;101825.84;5052779;28;20025;-70
2024/01/07 03:55:41;;;;;;;27.42;13.48;;;;;;;0.36;100.00;101824.03;5052283;28;20048;-70
2024/01/07 03:58:07;;;;;;;25.00;12.48;;;;;;;0.41;100.00;101836.84;5052526;28;20017;-69
2024/01/07 04:00:33;;;;;;;30.92;14.13;;;;;;;0.40;100.00;101833.41;5052256;28;20056;-69
2024/01/07 04:02:58;;;;;;;28.50;13.43;;;;;;;0.45;100.00;101843.59;5052341;28;20108;-69
2024/01/07 04:05:24;;;;;;;32.30;12.43;;;;;;;0.41;100.00;101836.84;5052183;28;20033;-69
2024/01/07 04:07:49;;;;;;;30.25;14.85;;;;;;;0.42;100.00;101843.81;5052298;28;20032;-69
2024/01/07 04:10:17;;;;;;;27.10;12.38;;;;;;;0.34;100.00;101841.69;5052187;28;20409;-69
2024/01/07 04:12:43;;;;;;;34.08;16.88;;;;;;;0.26;100.00;101833.50;5052101;28;20033;-69
2024/01/07 04:15:10;;;;;;;23.98;11.90;;;;;;;0.31;100.00;101846.31;5052139;28;20028;-70
2024/01/07 04:17:36;;;;;;;32.90;14.38;;;;;;;0.33;100.00;101854.91;5050622;28;20082;-70
2024/01/07 04:20:01;;;;;;;28.95;13.27;;;;;;;0.32;100.00;101851.47;5051949;28;20025;-69
2024/01/07 04:22:27;;;;;;;24.70;12.48;;;;;;;0.34;100.00;101856.59;5051881;28;20029;-70
2024/01/07 04:24:52;;;;;;;27.50;13.00;;;;;;;0.32;100.00;101856.69;5051834;28;20491;-69
2024/01/07 04:27:17;;;;;;;28.25;13.00;;;;;;;0.31;100.00;101862.88;5050671;28;20036;-70
2024/01/07 04:29:43;;;;;;;24.65;12.43;;;;;;;0.35;100.00;101872.22;5050621;28;20117;-69
2024/01/07 04:32:08;;;;;;;21.52;9.20;;;;;;;0.34;100.00;101867.06;5051935;28;20029;-69
2024/01/07 04:34:33;;;;;;;23.65;11.07;;;;;;;0.39;100.00;101872.84;5051886;28;20456;-69
2024/01/07 04:36:59;;;;;;;21.23;9.18;;;;;;;0.35;100.00;101872.22;5051856;28;20029;-69
2024/01/07 04:39:24;;;;;;;22.98;13.15;;;;;;;0.39;100.00;101878.97;5051650;28;20125;-69
2024/01/07 04:41:49;;;;;;;21.77;9.82;;;;;;;0.35;100.00;101874.03;5051674;28;20078;-69
2024/01/07 04:44:14;;;;;;;20.00;8.57;;;;;;;0.40;100.00;101882.41;5051740;28;20032;-69
2024/01/07 04:46:40;;;;;;;23.15;10.95;;;;;;;0.34;100.00;101891.56;5051591;28;20036;-69
2024/01/07 04:49:06;;;;;;;24.25;11.20;;;;;;;0.30;100.00;101905.81;5051350;28;20057;-69
2024/01/07 04:51:32;;;;;;;21.70;10.20;;;;;;;0.29;100.00;101892.78;5051522;28;20020;-69
2024/01/07 04:53:57;;;;;;;25.05;11.20;;;;;;;0.26;100.00;101893.00;5051347;28;20128;-70
2024/01/07 04:56:23;;;;;;;19.52;9.23;;;;;;;0.24;100.00;101898.38;5050993;28;20127;-69
2024/01/07 04:58:48;;;;;;;21.13;8.95;;;;;;;0.21;100.00;101894.16;5051469;28;20057;-69
2024/01/07 05:01:14;;;;;;;13.82;5.88;;;;;;;0.17;100.00;101892.69;5052137;28;20115;-69
2024/01/07 05:03:39;;;;;;;23.00;10.57;;;;;;;0.17;100.00;101904.97;5051912;28;20064;-70
2024/01/07 05:06:05;;;;;;;24.13;11.23;;;;;;;0.11;100.00;101900.97;5051512;28;20061;-69
2024/01/07 05:08:30;;;;;;;20.35;10.32;;;;;;;0.13;100.00;101906.09;5050258;28;20037;-69
2024/01/07 05:10:56;;;;;;;22.63;11.30;;;;;;;0.13;100.00;101900.84;5051279;28;20484;-70
2024/01/07 05:13:21;;;;;;;23.42;9.95;;;;;;;0.09;100.00;101904.63;5051046;28;20552;-69
2024/01/07 05:15:53;;;;;;;22.60;9.75;;;;;;;0.11;100.00;101911.47;5050788;28;20365;-69
2024/01/07 05:18:25;;;;;;;24.17;12.35;;;;;;;0.09;100.00;101910.72;5051006;28;20481;-69
2024/01/07 05:20:50;;;;;;;22.05;11.20;;;;;;;0.09;100.00;101910.72;5050945;28;20140;-70
2024/01/07 05:23:16;;;;;;;20.08;10.43;;;;;;;0.08;100.00;101916.91;5050840;28;20132;-70
2024/01/07 05:25:43;;;;;;;21.63;10.32;;;;;;;0.09;100.00;101920.38;5050814;28;20119;-69
2024/01/07 05:28:08;;;;;;;20.23;10.02;;;;;;;0.11;100.00;101923.75;5050840;28;20033;-70
2024/01/07 05:30:34;;;;;;;20.58;10.60;;;;;;;0.14;100.00;101926.16;5050613;28;20032;-70
2024/01/07 05:32:59;;;;;;;21.42;9.68;;;;;;;0.07;100.00;101933.56;5050770;28;20120;-69
2024/01/07 05:35:24;;;;;;;22.55;9.43;;;;;;;0.12;100.00;101935.91;5050467;28;20056;-69
2024/01/07 05:37:50;;;;;;;21.65;9.45;;;;;;;0.10;100.00;101941.25;5050617;28;20067;-70
2024/01/07 05:40:15;;;;;;;20.30;9.73;;;;;;;0.09;100.00;101936.94;5050479;28;20044;-69
2024/01/07 05:42:40;;;;;;;18.90;9.60;;;;;;;0.10;100.00;101943.03;5050394;28;20061;-70
2024/01/07 05:45:06;;;;;;;21.15;10.05;;;;;;;0.09;100.00;101951.84;5050362;28;20037;-70
2024/01/07 05:47:31;;;;;;;22.02;9.88;;;;;;;0.07;100.00;101951.94;5050617;28;20039;-70
2024/01/07 05:49:57;;;;;;;19.65;10.73;;;;;;;0.05;100.00;101956.44;5050298;28;20072;-69
2024/01/07 05:52:22;;;;;;;20.50;9.52;;;;;;;0.04;100.00;101956.56;5050296;28;20036;-69
2024/01/07 05:54:48;;;;;;;19.67;9.95;;;;;;;0.02;100.00;101963.66;5050316;28;20043;-70
2024/01/07 05:57:13;;;;;;;15.30;7.78;;;;;;;0.01;100.00;101964.63;5050175;28;20045;-69
2024/01/07 05:59:38;;;;;;;18.55;9.50;;;;;;;0.05;100.00;101968.72;5050175;28;20418;-69
2024/01/07 06:02:04;;;;;;;19.75;9.10;;;;;;;0.01;100.00;101972.50;5048600;28;20060;-70
2024/01/07 06:04:29;;;;;;;21.48;12.52;;;;;;;-0.01;100.00;101970.78;5050129;28;20064;-69
2024/01/07 06:06:55;;;;;;;20.67;10.48;;;;;;;0.00;100.00;101982.16;5049808;28;20044;-70
2024/01/07 06:09:20;;;;;;;17.60;8.75;;;;;;;-0.05;100.00;101982.44;5048042;28;20472;-69
2024/01/07 06:11:46;;;;;;;18.70;10.20;;;;;;;-0.11;100.00;101988.06;5049548;28;20037;-70
2024/01/07 06:14:12;;;;;;;19.75;8.93;;;;;;;-0.08;100.00;101990.50;5049924;28;20100;-69
2024/01/07 06:16:37;;;;;;;20.25;9.93;;;;;;;-0.06;100.00;101991.22;5049735;28;20220;-69
2024/01/07 06:19:02;;;;;;;14.13;7.65;;;;;;;-0.08;100.00;101987.03;5048437;28;20028;-69
2024/01/07 06:21:28;;;;;;;18.90;9.90;;;;;;;-0.07;100.00;102000.06;5049692;28;21009;-69
2024/01/07 06:23:53;;;;;;;21.65;12.13;;;;;;;-0.11;100.00;101998.56;5049629;28;20025;-70
2024/01/07 06:26:18;;;;;;;17.25;9.43;;;;;;;-0.18;100.00;101999.03;5049685;28;20064;-69
2024/01/07 06:28:44;;;;;;;21.73;10.32;;;;;;;-0.14;100.00;102009.25;5049321;28;20040;-70
2024/01/07 06:31:09;;;;;;;20.17;10.45;;;;;;;-0.13;100.00;102008.31;5049461;28;20021;-70
2024/01/07 06:33:34;;;;;;;21.08;11.32;;;;;;;-0.09;100.00;102017.66;5049383;28;20052;-69
2024/01/07 06:36:00;;;;;;;20.17;10.25;;;;;;;-0.13;100.00;102024.06;5048053;28;20191;-70
2024/01/07 06:38:26;;;;;;;21.23;10.48;;;;;;;-0.09;100.00;102035.19;5049412;28;20071;-70
2024/01/07 06:40:53;;;;;;;22.02;10.40;;;;;;;-0.06;100.00;102030.56;5049257;28;20029;-70
2024/01/07 06:43:19;;;;;;;21.98;10.00;;;;;;;-0.12;100.00;102035.38;5049126;28;20033;-70
2024/01/07 06:45:44;;;;;;;20.15;11.10;;;;;;;-0.11;100.00;102052.78;5049385;28;20038;-70
2024/01/07 06:48:10;;;;;;;22.40;9.82;;;;;;;-0.16;100.00;102042.56;5049162;28;20079;-70
2024/01/07 06:50:35;;;;;;;15.63;8.32;;;;;;;-0.16;100.00;102047.81;5048951;28;20049;-70
2024/01/07 06:53:00;;;;;;;20.48;9.50;;;;;;;-0.16;100.00;102054.84;5049302;28;20037;-70
2024/01/07 06:55:25;;;;;;;21.05;9.20;;;;;;;-0.16;100.00;102053.06;5049007;28;20031;-70
2024/01/07 06:57:51;;;;;;;18.75;9.60;;;;;;;-0.24;100.00;102058.81;5048972;28;20040;-70
2024/01/07 07:00:17;;;;;;;22.65;11.50;;;;;;;-0.24;100.00;102050.94;5049003;28;20037;-70
2024/01/07 07:02:43;;;;;;;17.70;8.90;;;;;;;-0.20;100.00;102067.31;5048794;28;20560;-70
2024/01/07 07:05:08;;;;;;;18.67;10.27;;;;;;;-0.25;100.00;102064.16;5049003;28;20107;-70
2024/01/07 07:07:34;;;;;;;21.00;9.93;;;;;;;-0.31;100.00;102072.41;5048993;28;20067;-70
2024/01/07 07:09:59;;;;;;;21.90;11.48;;;;;;;-0.27;100.00;102073.88;5048751;28;20028;-70
2024/01/07 07:12:25;;;;;;;22.30;11.98;;;;;;;-0.19;100.00;102078.66;5048894;28;20037;-70
2024/01/07 07:14:50;;;;;;;20.02;11.00;;;;;;;-0.30;100.00;102072.28;5047449;28;20488;-70
2024/01/07 07:17:15;;;;;;;21.77;10.13;;;;;;;-0.26;100.00;102080.81;5048810;28;20087;-70
2024/01/07 07:19:41;;;;;;;21.88;10.60;;;;;;;-0.33;100.00;102077.72;5047438;28;20090;-70
2024/01/07 07:22:06;;;;;;;17.17;8.43;;;;;;;-0.30;100.00;102089.81;5047575;28;20033;-70
2024/01/07 07:24:31;;;;;;;19.83;10.18;;;;;;;-0.29;100.00;102091.47;5048679;28;20362;-69
2024/01/07 07:26:57;;;;;;;22.60;12.18;;;;;;;-0.28;100.00;102093.19;5049287;28;20039;-69
2024/01/07 07:29:22;;;;;;;17.95;9.23;;;;;;;-0.33;100.00;102098.69;5048596;28;20036;-70
2024/01/07 07:31:48;;;;;;;23.67;8.23;;;;;;;-0.39;100.00;102082.50;5048723;28;20132;-70
2024/01/07 07:34:13;;;;;;;18.02;9.45;;;;;;;-0.32;100.00;102102.16;5048693;28;20116;-70
2024/01/07 07:36:40;;;;;;;19.27;9.38;;;;;;;-0.35;100.00;102110.22;5048795;28;20468;-70
2024/01/07 07:39:06;;;;;;;20.25;9.25;;;;;;;-0.34;100.00;102112.75;5047159;28;20033;-70
2024/01/07 07:41:31;;;;;;;21.05;11.57;;;;;;;-0.33;100.00;102119.66;5048509;28;20389;-70
2024/01/07 07:43:56;;;;;;;19.45;11.55;;;;;;;-0.32;100.00;102133.59;5048758;28;20053;-69
2024/01/07 07:46:22;;;;;;;19.73;9.68;;;;;;;-0.37;100.00;102133.03;5047320;28;20373;-70
2024/01/07 07:48:48;;;;;;;17.80;8.65;;;;;;;-0.35;100.00;102136.41;5048439;28;20053;-70
2024/01/07 07:51:13;;;;;;;15.45;8.30;;;;;;;-0.42;100.00;102128.06;5048510;28;20067;-70
2024/01/07 07:53:42;;;;;;;21.70;10.18;;;;;;;-0.36;100.00;102135.59;5048464;28;20967;-70
2024/01/07 07:56:08;;;;;;;16.75;8.45;;;;;;;-0.37;100.00;102148.78;5048554;28;20376;-70
2024/01/07 07:58:33;;;;;;;19.75;8.95;;;;;;;-0.42;100.00;102132.47;5048517;28;20414;-70
2024/01/07 08:00:59;;;;;;;21.23;9.40;;;;;;;-0.40;100.00;102149.78;5048457;28;20113;-70
2024/01/07 08:03:24;;;;;;;20.88;11.90;;;;;;;-0.37;100.00;102154.84;5048216;28;20132;-70
2024/01/07 08:05:50;;;;;;;21.35;9.27;;;;;;;-0.39;100.00;102155.88;5048156;28;20051;-70
2024/01/07 08:08:16;;;;;;;20.17;11.02;;;;;;;-0.38;100.00;102152.34;5046351;28;20060;-70
2024/01/07 08:10:42;;;;;;;21.30;12.15;;;;;;;-0.38;100.00;102157.59;5047270;28;20481;-70
2024/01/07 08:13:08;;;;;;;19.80;10.05;;;;;;;-0.35;100.00;102162.63;5047446;28;20040;-70
2024/01/07 08:15:34;;;;;;;20.58;10.70;;;;;;;-0.43;100.00;102172.75;5047220;28;20064;-70
2024/01/07 08:18:00;;;;;;;18.27;8.82;;;;;;;-0.38;100.00;102162.81;5047383;28;20449;-70
2024/01/07 08:20:25;;;;;;;18.42;9.65;;;;;;;-0.40;100.00;102169.94;5047817;28;20037;-69
2024/01/07 08:22:51;;;;;;;18.40;8.90;;;;;;;-0.39;100.00;102174.22;5048193;28;20041;-70
2024/01/07 08:25:16;;;;;;;19.08;8.75;;;;;;;-0.45;100.00;102176.31;5048063;28;20133;-70
2024/01/07 08:27:41;;;;;;;20.90;8.82;;;;;;;-0.46;100.00;102171.97;5048216;28;20472;-70
2024/01/07 08:30:07;;;;;;;17.58;7.32;;;;;;;-0.43;100.00;102167.50;5048150;28;20579;-70
2024/01/07 08:32:33;;;;;;;16.45;7.32;;;;;;;-0.47;100.00;102172.94;5050521;28;20472;-70
2024/01/07 08:34:58;;;;;;;18.38;8.20;;;;;;;-0.49;100.00;102169.56;5050245;28;20048;-69
2024/01/07 08:37:24;;;;;;;19.52;9.02;;;;;;;-0.45;100.00;102178.94;5051589;28;20099;-70
2024/01/07 08:39:49;;;;;;;22.05;9.05;;;;;;;-0.38;100.00;102195.13;5050136;28;20096;-70
2024/01/07 08:42:15;;;;;;;19.52;8.95;;;;;;;-0.40;100.00;102193.50;5050095;28;20484;-70
2024/01/07 08:44:42;;;;;;;16.45;7.18;;;;;;;-0.34;100.00;102203.63;5051435;28;20385;-70
2024/01/07 08:47:07;;;;;;;20.45;9.40;;;;;;;-0.40;100.00;102211.88;5051353;28;20049;-70
2024/01/07 08:49:33;;;;;;;18.80;11.02;;;;;;;-0.41;100.00;102215.44;5051360;28;20045;-70
2024/01/07 08:51:58;;;;;;;14.65;7.35;;;;;;;-0.38;100.00;102217.88;5050026;28;20021;-70
2024/01/07 08:54:24;;;;;;;19.08;8.60;;;;;;;-0.42;100.00;102211.09;5050369;28;20108;-70
2024/01/07 08:56:49;;;;;;;19.90;9.13;;;;;;;-0.43;100.00;102215.50;5051054;28;20029;-69
2024/01/07 08:59:15;;;;;;;19.42;9.85;;;;;;;-0.44;100.00;102211.22;5051129;28;20031;-70
2024/01/07 09:01:40;;;;;;;18.05;10.13;;;;;;;-0.37;100.00;102223.00;5051137;28;20041;-69
2024/01/07 09:04:05;;;;;;;17.08;8.15;;;;;;;-0.36;100.00;102224.69;5052001;28;20044;-69
2024/01/07 09:06:32;;;;;;;18.42;7.75;;;;;;;-0.43;100.00;102225.16;5051673;28;20029;-70
2024/01/07 09:08:57;;;;;;;19.60;8.45;;;;;;;-0.41;100.00;102229.38;5051241;28;20087;-69
2024/01/07 09:11:23;;;;;;;19.30;9.30;;;;;;;-0.37;100.00;102248.38;5050814;28;20033;-69
2024/01/07 09:13:50;;;;;;;17.67;8.88;;;;;;;-0.42;100.00;102245.19;5051061;28;20029;-70
2024/01/07 09:16:15;;;;;;;16.17;8.43;;;;;;;-0.43;100.00;102241.72;5050754;28;20071;-70
2024/01/07 09:18:41;;;;;;;17.38;8.38;;;;;;;-0.47;100.00;102251.56;5050939;28;20929;-70
2024/01/07 09:21:06;;;;;;;16.98;8.55;;;;;;;-0.48;100.00;102256.88;5050481;28;20035;-70
2024/01/07 09:23:33;;;;;;;16.80;9.25;;;;;;;-0.53;100.00;102266.78;5049342;28;20029;-70
2024/01/07 09:25:59;;;;;;;16.85;8.23;;;;;;;-0.49;100.00;102271.75;5048148;28;20037;-70
2024/01/07 09:28:24;;;;;;;18.50;7.45;;;;;;;-0.58;100.00;102269.66;5050290;28;20082;-70
2024/01/07 09:30:50;;;;;;;15.55;7.88;;;;;;;-0.56;100.00;102282.69;5050691;28;20523;-71
2024/01/07 09:33:15;;;;;;;13.30;6.40;;;;;;;-0.56;100.00;102282.69;5050583;28;20025;-70
2024/01/07 09:35:41;;;;;;;13.95;8.27;;;;;;;-0.57;100.00;102279.22;5050484;28;20510;-70
2024/01/07 09:38:06;;;;;;;14.13;7.70;;;;;;;-0.61;100.00;102276.84;5050642;28;20029;-70
2024/01/07 09:40:32;;;;;;;18.13;8.52;;;;;;;-0.57;100.00;102276.59;5050337;28;20032;-70
2024/01/07 09:42:59;;;;;;;12.38;6.63;;;;;;;-0.54;100.00;102288.69;5048918;28;20116;-70
2024/01/07 09:45:25;;;;;;;15.77;7.57;;;;;;;-0.58;100.00;102292.41;5048734;28;20029;-70
2024/01/07 09:47:50;;;;;;;17.73;8.77;;;;;;;-0.57;100.00;102300.19;5048355;28;20087;-70
2024/01/07 09:50:16;;;;;;;13.00;6.90;;;;;;;-0.61;100.00;102298.66;5050115;28;20053;-70
2024/01/07 09:52:47;;;;;;;15.32;8.27;;;;;;;-0.61;100.00;102306.53;5050059;28;20032;-70
2024/01/07 09:55:32;;;;;;;15.83;7.97;;;;;;;-0.59;100.00;102299.41;5050154;28;20036;-70
2024/01/07 09:57:58;;;;;;;16.77;7.70;;;;;;;-0.63;100.00;102308.38;5050088;28;20029;-70
2024/01/07 10:00:26;;;;;;;13.15;7.25;;;;;;;-0.65;100.00;102305.03;5049971;28;20028;-70
2024/01/07 10:02:52;;;;;;;17.05;9.02;;;;;;;-0.56;100.00;102316.75;5050006;28;20376;-70
2024/01/07 10:05:17;;;;;;;17.05;7.35;;;;;;;-0.59;100.00;102317.75;5048532;28;20035;-70
2024/01/07 10:07:42;;;;;;;16.25;7.65;;;;;;;-0.58;100.00;102314.19;5048518;28;20044;-70
2024/01/07 10:10:15;;;;;;;13.35;7.85;;;;;;;-0.57;100.00;102320.31;5049794;28;20029;-70
2024/01/07 10:12:40;;;;;;;16.05;7.47;;;;;;;-0.60;100.00;102333.56;5049889;28;20103;-69
2024/01/07 10:15:07;;;;;;;16.63;7.72;;;;;;;-0.66;100.00;102311.19;5048491;28;20476;-70
2024/01/07 10:17:32;;;;;;;18.23;8.27;;;;;;;-0.60;100.00;102328.31;5049758;28;20031;-70
2024/01/07 10:19:58;;;;;;;16.38;6.35;;;;;;;-0.56;100.00;102328.06;5049636;28;20029;-70
2024/01/07 10:22:23;;;;;;;17.00;7.13;;;;;;;-0.54;100.00;102331.44;5049543;28;20033;-70
2024/01/07 10:24:51;;;;;;;15.05;8.40;;;;;;;-0.53;100.00;102333.13;5049684;28;20029;-70
2024/01/07 10:27:17;;;;;;;17.08;8.90;;;;;;;-0.49;100.00;102333.81;5049463;28;20056;-70
2024/01/07 10:29:43;;;;;;;16.55;7.38;;;;;;;-0.52;100.00;102334.00;5049610;28;20375;-70
2024/01/07 10:32:08;;;;;;;17.02;8.15;;;;;;;-0.47;100.00;102343.28;5049574;28;20025;-70
2024/01/07 10:34:35;;;;;;;13.95;6.75;;;;;;;-0.50;100.00;102338.22;5049500;28;20101;-70
2024/01/07 10:37:03;;;;;;;16.58;7.93;;;;;;;-0.49;100.00;102346.91;5048108;28;20037;-69
2024/01/07 10:39:29;;;;;;;17.90;8.88;;;;;;;-0.43;100.00;102336.06;5049221;28;20029;-69
2024/01/07 10:42:00;;;;;;;15.98;7.70;;;;;;;-0.46;100.00;102339.72;5049163;28;20028;-70
2024/01/07 10:44:26;;;;;;;15.85;9.00;;;;;;;-0.42;100.00;102336.91;5049248;28;20388;-70
2024/01/07 10:46:54;;;;;;;18.35;9.68;;;;;;;-0.43;100.00;102340.47;5049173;28;20147;-69
2024/01/07 10:49:21;;;;;;;15.98;8.75;;;;;;;-0.38;100.00;102343.66;5049065;28;20049;-70
2024/01/07 10:51:55;;;;;;;15.15;6.25;;;;;;;-0.38;100.00;102346.28;5048854;28;20040;-70
2024/01/07 10:54:23;;;;;;;17.05;7.47;;;;;;;-0.41;100.00;102339.44;5048657;28;20119;-70
2024/01/07 10:56:52;;;;;;;19.63;9.45;;;;;;;-0.37;100.00;102337.47;5048984;28;20041;-69
2024/01/07 10:59:19;;;;;;;15.73;7.15;;;;;;;-0.34;100.00;102339.91;5049065;28;20029;-70
2024/01/07 11:01:45;;;;;;;13.85;6.45;;;;;;;-0.27;100.00;102344.72;5048840;28;20033;-70